Time;durP1;ratioP1;P1;durP2;ratioP2;P2;SDS_P1;SDS_P2;PMS_P1;PMS_P2;Temp;Humidity;BMP_temperature;BMP_pressure;BME280_temperature;BME280_humidity;BME280_pressure;Samples;Min_cycle;Max_cycle;Signal;HPM_P1;HPM_P2
2023/02/27 00:00:13;;;;;;;7.20;3.55;;;1.40;99.90;;;;;;5062520;28;20399;-70
2023/02/27 00:02:44;;;;;;;8.52;3.25;;;1.30;99.90;;;;;;5069210;28;20040;-70
2023/02/27 00:05:10;;;;;;;6.85;2.90;;;1.30;99.90;;;;;;5069743;28;20044;-70
2023/02/27 00:07:36;;;;;;;4.38;2.65;;;1.50;99.90;;;;;;5072355;28;20119;-70
2023/02/27 00:10:02;;;;;;;7.43;2.72;;;1.40;99.90;;;;;;5065960;28;20124;-70
2023/02/27 00:12:29;;;;;;;6.15;2.70;;;1.50;99.90;;;;;;5065763;28;20507;-70
2023/02/27 00:14:55;;;;;;;9.38;2.85;;;1.50;99.90;;;;;;5072661;28;20519;-70
2023/02/27 00:17:20;;;;;;;4.45;3.17;;;1.40;99.90;;;;;;5073935;28;20045;-70
2023/02/27 00:19:46;;;;;;;6.40;2.70;;;1.40;99.90;;;;;;5072975;28;20123;-70
2023/02/27 00:22:11;;;;;;;5.32;3.33;;;1.30;99.90;;;;;;5073856;28;20044;-70
2023/02/27 00:24:37;;;;;;;5.85;2.70;;;1.30;99.90;;;;;;5072380;28;20048;-70
2023/02/27 00:27:02;;;;;;;7.15;2.88;;;1.40;99.90;;;;;;5072488;28;20084;-70
2023/02/27 00:29:28;;;;;;;8.85;3.50;;;1.30;99.90;;;;;;5073993;28;20064;-70
2023/02/27 00:31:53;;;;;;;4.88;2.97;;;1.30;99.90;;;;;;5072513;28;20463;-69
2023/02/27 00:34:19;;;;;;;4.45;2.58;;;1.30;99.90;;;;;;5073442;28;20411;-70
2023/02/27 00:36:44;;;;;;;5.93;3.25;;;1.40;99.90;;;;;;5073435;28;20047;-70
2023/02/27 00:39:10;;;;;;;5.18;3.25;;;1.40;99.90;;;;;;5072232;28;20051;-70
2023/02/27 00:41:36;;;;;;;6.25;3.70;;;1.50;99.90;;;;;;5073799;28;20037;-70
2023/02/27 00:44:01;;;;;;;9.02;3.00;;;1.40;99.90;;;;;;5073196;28;20068;-70
2023/02/27 00:46:27;;;;;;;11.32;3.65;;;1.40;99.90;;;;;;5073363;28;20044;-70
2023/02/27 00:48:52;;;;;;;8.85;3.33;;;1.30;99.90;;;;;;5073208;28;20036;-70
2023/02/27 00:51:19;;;;;;;8.15;3.45;;;1.30;99.90;;;;;;5073276;28;20094;-70
2023/02/27 00:53:45;;;;;;;6.60;3.25;;;1.30;99.90;;;;;;5073385;28;20044;-70
2023/02/27 00:56:10;;;;;;;6.75;3.30;;;1.30;99.90;;;;;;5073453;28;20052;-70
2023/02/27 00:58:36;;;;;;;5.82;3.65;;;1.20;99.90;;;;;;5060100;28;20124;-70
2023/02/27 01:01:01;;;;;;;9.70;3.30;;;1.30;99.90;;;;;;5052204;28;20041;-69
2023/02/27 01:03:27;;;;;;;5.35;3.90;;;1.30;99.90;;;;;;5052353;28;20040;-70
2023/02/27 01:05:52;;;;;;;5.28;3.47;;;1.30;99.90;;;;;;5051670;28;20037;-70
2023/02/27 01:08:19;;;;;;;6.30;2.80;;;1.30;99.90;;;;;;5053223;28;20045;-70
2023/02/27 01:10:45;;;;;;;6.32;2.80;;;1.30;99.90;;;;;;5060311;28;20045;-70
2023/02/27 01:13:10;;;;;;;5.82;3.17;;;1.40;99.90;;;;;;5072952;28;20050;-70
2023/02/27 01:15:36;;;;;;;9.43;3.20;;;1.30;99.90;;;;;;5072084;28;20403;-70
2023/02/27 01:18:02;;;;;;;7.75;2.80;;;1.50;99.90;;;;;;5072175;28;20495;-70
2023/02/27 01:20:27;;;;;;;6.45;3.78;;;1.40;99.90;;;;;;5073005;28;20040;-70
2023/02/27 01:22:53;;;;;;;5.18;2.78;;;1.40;99.90;;;;;;5072957;28;20078;-70
2023/02/27 01:25:18;;;;;;;12.05;3.22;;;1.50;99.90;;;;;;5072857;28;20241;-70
2023/02/27 01:27:44;;;;;;;5.05;2.80;;;1.60;99.90;;;;;;5071279;28;20036;-70
2023/02/27 01:30:11;;;;;;;4.85;2.85;;;1.50;99.90;;;;;;5071729;28;20044;-70
2023/02/27 01:32:37;;;;;;;8.80;3.55;;;1.50;99.90;;;;;;5072560;28;20041;-70
2023/02/27 01:35:03;;;;;;;6.68;3.08;;;1.40;99.90;;;;;;5071251;28;20047;-70
2023/02/27 01:37:28;;;;;;;5.53;3.00;;;1.40;99.90;;;;;;5071515;28;20555;-70
2023/02/27 01:39:54;;;;;;;4.55;2.90;;;1.50;99.90;;;;;;5072777;28;20068;-70
2023/02/27 01:42:23;;;;;;;6.60;3.30;;;1.30;99.90;;;;;;5072594;28;20407;-70
2023/02/27 01:45:06;;;;;;;7.22;3.60;;;1.40;99.90;;;;;;5071037;28;20407;-70
2023/02/27 01:47:32;;;;;;;6.57;2.63;;;1.50;99.90;;;;;;5071463;28;20392;-70
2023/02/27 01:49:58;;;;;;;8.93;3.85;;;1.40;99.90;;;;;;5072320;28;20048;-70
2023/02/27 01:52:23;;;;;;;4.57;2.97;;;1.30;99.90;;;;;;5072272;28;20041;-70
2023/02/27 01:54:49;;;;;;;6.60;3.25;;;1.30;99.90;;;;;;5072271;28;20040;-70
2023/02/27 01:57:15;;;;;;;4.70;2.85;;;1.40;99.90;;;;;;5071986;28;20044;-70
2023/02/27 01:59:42;;;;;;;9.20;2.55;;;1.50;99.90;;;;;;5072139;28;20410;-69
2023/02/27 02:02:18;;;;;;;4.53;2.78;;;1.40;99.90;;;;;;5070751;28;20491;-70
2023/02/27 02:04:45;;;;;;;10.38;2.92;;;1.50;99.90;;;;;;5072016;28;20036;-70
2023/02/27 02:07:17;;;;;;;8.68;2.97;;;1.40;99.90;;;;;;5071865;28;20427;-70
2023/02/27 02:09:52;;;;;;;7.30;3.45;;;1.50;99.90;;;;;;5072040;28;20036;-70
2023/02/27 02:12:21;;;;;;;7.93;2.92;;;1.50;99.90;;;;;;5071934;28;20067;-70
2023/02/27 02:14:46;;;;;;;5.55;2.67;;;1.50;99.90;;;;;;5070520;28;20040;-70
2023/02/27 02:17:40;;;;;;;6.93;2.97;;;1.50;99.90;;;;;;5070528;28;20119;-70
2023/02/27 02:20:27;;;;;;;5.13;3.75;;;1.50;99.90;;;;;;5071884;28;20036;-70
2023/02/27 02:23:25;;;;;;;6.53;2.83;;;1.60;99.90;;;;;;5071433;28;20542;-70
2023/02/27 02:25:53;;;;;;;7.22;2.88;;;1.40;99.90;;;;;;5071847;28;20380;-70
2023/02/27 02:28:31;;;;;;;7.32;3.08;;;1.40;99.90;;;;;;5071324;28;20415;-70
2023/02/27 02:31:13;;;;;;;6.82;3.35;;;1.50;99.90;;;;;;5071398;28;20040;-70
2023/02/27 02:34:27;;;;;;;10.60;2.88;;;1.50;99.90;;;;;;5069867;28;20047;-70
2023/02/27 02:37:04;;;;;;;6.90;2.92;;;1.50;99.90;;;;;;5054100;28;20127;-70
2023/02/27 02:40:04;;;;;;;5.18;2.63;;;1.40;99.90;;;;;;5071556;28;20083;-70
2023/02/27 02:42:37;;;;;;;8.73;3.20;;;1.50;99.90;;;;;;5070311;28;20044;-70
2023/02/27 02:45:18;;;;;;;4.38;2.50;;;1.40;99.90;;;;;;5070118;28;20063;-70
2023/02/27 02:47:58;;;;;;;6.68;3.20;;;1.40;99.90;;;;;;5071129;28;20044;-70
2023/02/27 02:50:41;;;;;;;6.95;3.20;;;1.30;99.90;;;;;;5071760;28;20036;-70
2023/02/27 02:53:41;;;;;;;4.25;2.95;;;1.30;99.90;;;;;;5071385;28;20078;-70
2023/02/27 02:56:12;;;;;;;6.72;3.00;;;1.40;99.90;;;;;;5071513;28;20096;-70
2023/02/27 02:59:11;;;;;;;8.50;3.38;;;1.30;99.90;;;;;;5071535;28;20072;-70
2023/02/27 03:01:50;;;;;;;8.43;3.75;;;1.40;99.90;;;;;;5071054;28;20048;-70
2023/02/27 03:04:21;;;;;;;10.23;3.25;;;1.40;99.90;;;;;;5069898;28;20043;-70
2023/02/27 03:06:58;;;;;;;7.05;3.22;;;1.30;99.90;;;;;;5071022;28;20569;-70
2023/02/27 03:09:32;;;;;;;10.02;3.63;;;1.30;99.90;;;;;;5071146;28;20032;-70
2023/02/27 03:12:01;;;;;;;9.43;3.72;;;1.30;99.90;;;;;;5071310;28;20043;-70
2023/02/27 03:14:57;;;;;;;6.82;2.80;;;1.20;99.90;;;;;;5071015;28;20048;-70
2023/02/27 03:17:39;;;;;;;5.78;3.38;;;1.10;99.90;;;;;;5055415;28;20056;-70
2023/02/27 03:20:11;;;;;;;6.70;3.60;;;1.00;99.90;;;;;;5070061;28;20124;-70
2023/02/27 03:22:41;;;;;;;5.88;3.47;;;1.10;99.90;;;;;;5069801;28;20044;-70
2023/02/27 03:25:10;;;;;;;3.85;2.83;;;1.20;99.90;;;;;;5069821;28;20047;-70
2023/02/27 03:27:44;;;;;;;5.28;3.75;;;1.00;99.90;;;;;;5069686;28;20078;-70
2023/02/27 03:30:15;;;;;;;7.95;3.22;;;1.00;99.90;;;;;;5071346;28;20419;-70
2023/02/27 03:32:59;;;;;;;8.70;3.63;;;1.00;99.90;;;;;;5071083;28;20039;-70
2023/02/27 03:35:39;;;;;;;6.43;3.25;;;1.00;99.90;;;;;;5071145;28;20087;-70
2023/02/27 03:38:33;;;;;;;7.85;2.97;;;1.00;99.90;;;;;;5069720;28;20052;-70
2023/02/27 03:41:24;;;;;;;10.02;5.32;;;1.00;99.90;;;;;;5053393;28;20406;-70
2023/02/27 03:44:09;;;;;;;5.05;3.00;;;0.90;99.90;;;;;;5074545;28;20068;-70
2023/02/27 03:46:35;;;;;;;10.13;3.20;;;1.00;99.90;;;;;;5072867;28;20077;-70
2023/02/27 03:49:02;;;;;;;5.03;2.85;;;0.80;99.90;;;;;;5074610;28;20037;-70
2023/02/27 03:51:30;;;;;;;6.47;3.15;;;0.90;99.90;;;;;;5074635;28;20068;-70
2023/02/27 03:54:04;;;;;;;6.10;3.30;;;1.00;99.90;;;;;;5072971;28;20067;-70
2023/02/27 03:56:42;;;;;;;5.85;3.22;;;0.70;99.90;;;;;;5074380;28;20094;-70
2023/02/27 03:59:08;;;;;;;7.90;4.03;;;0.80;99.90;;;;;;5073164;28;20059;-70
2023/02/27 04:01:33;;;;;;;7.90;3.30;;;0.70;99.90;;;;;;5074552;28;20032;-70
2023/02/27 04:04:08;;;;;;;5.85;3.28;;;0.70;99.90;;;;;;5074310;28;20087;-70
2023/02/27 04:09:39;;;;;;;5.53;3.85;;;0.60;99.90;;;;;;5074457;28;20068;-70
2023/02/27 04:12:32;;;;;;;10.10;3.00;;;0.80;99.90;;;;;;5074379;28;20036;-70
2023/02/27 04:15:37;;;;;;;7.07;3.42;;;0.80;99.90;;;;;;5073023;28;20102;-71
2023/02/27 04:18:26;;;;;;;7.38;3.30;;;0.70;99.90;;;;;;5072762;28;20076;-70
2023/02/27 04:21:09;;;;;;;4.68;3.47;;;0.60;99.90;;;;;;5072890;28;20094;-70
2023/02/27 04:23:44;;;;;;;8.63;3.50;;;0.70;99.90;;;;;;5073880;28;20052;-71
2023/02/27 04:26:21;;;;;;;7.15;2.95;;;0.70;99.90;;;;;;5072709;28;20279;-70
2023/02/27 04:29:14;;;;;;;17.40;4.35;;;0.70;99.90;;;;;;5072572;28;20491;-70
2023/02/27 04:31:53;;;;;;;6.07;3.17;;;0.60;99.90;;;;;;5073891;28;20044;-70
2023/02/27 04:34:42;;;;;;;3.58;2.60;;;0.70;99.90;;;;;;5073605;28;20032;-70
2023/02/27 04:37:15;;;;;;;7.78;3.40;;;0.70;99.90;;;;;;5072296;28;20044;-69
2023/02/27 04:39:52;;;;;;;6.90;4.30;;;0.70;99.90;;;;;;5073676;28;20622;-70
2023/02/27 04:42:22;;;;;;;4.00;2.60;;;0.70;99.90;;;;;;5073432;28;20090;-70
2023/02/27 04:44:50;;;;;;;8.40;3.70;;;0.70;99.90;;;;;;5072455;28;20074;-70
2023/02/27 04:47:18;;;;;;;6.25;3.40;;;0.70;99.90;;;;;;5073327;28;20040;-70
2023/02/27 04:49:50;;;;;;;5.82;3.13;;;0.50;99.90;;;;;;5073707;28;20040;-70
2023/02/27 04:52:25;;;;;;;4.05;2.80;;;0.60;99.90;;;;;;5072273;28;20033;-70
2023/02/27 04:55:12;;;;;;;7.15;3.15;;;0.60;99.90;;;;;;5071976;28;20550;-70
2023/02/27 04:57:46;;;;;;;6.38;3.83;;;0.50;99.90;;;;;;5073446;28;20124;-69
2023/02/27 05:00:12;;;;;;;;;;;0.50;99.90;;;;;;5073990;28;20499;-70
2023/02/27 05:02:44;;;;;;;4.95;2.95;;;0.60;99.90;;;;;;5072694;28;20294;-70
2023/02/27 05:05:15;;;;;;;6.55;3.10;;;0.60;99.90;;;;;;5055073;28;20048;-70
2023/02/27 05:07:48;;;;;;;4.55;2.83;;;0.60;99.90;;;;;;5072939;28;20108;-70
2023/02/27 05:10:36;;;;;;;5.28;3.47;;;0.50;99.90;;;;;;5071973;28;20036;-70
2023/02/27 05:13:13;;;;;;;7.93;3.17;;;0.50;99.90;;;;;;5072719;28;20112;-70
2023/02/27 05:15:46;;;;;;;6.72;3.08;;;0.60;99.90;;;;;;5072955;28;20033;-70
2023/02/27 05:18:16;;;;;;;5.38;3.05;;;0.50;99.90;;;;;;5071760;28;20058;-71
2023/02/27 05:20:56;;;;;;;6.95;3.25;;;0.50;99.90;;;;;;5073148;28;20040;-71
2023/02/27 05:23:43;;;;;;;7.55;2.75;;;0.50;99.90;;;;;;5071312;28;20054;-71
2023/02/27 05:26:11;;;;;;;8.23;3.40;;;0.30;99.90;;;;;;5072793;28;20478;-71
2023/02/27 05:29:02;;;;;;;9.18;3.85;;;0.40;99.90;;;;;;5072606;28;20043;-71
2023/02/27 05:31:51;;;;;;;8.80;4.00;;;0.40;99.90;;;;;;5085558;28;20120;-71
2023/02/27 05:34:42;;;;;;;6.55;3.72;;;0.50;99.90;;;;;;5072527;28;20040;-71
2023/02/27 05:37:20;;;;;;;8.05;4.13;;;0.40;99.90;;;;;;5072578;28;20048;-71
2023/02/27 05:39:49;;;;;;;5.55;3.72;;;0.30;99.90;;;;;;5072624;28;20403;-71
2023/02/27 05:42:27;;;;;;;6.80;4.75;;;0.40;99.90;;;;;;5072454;28;20522;-71
2023/02/27 05:45:07;;;;;;;7.80;3.85;;;0.40;99.90;;;;;;5071016;28;20590;-72
2023/02/27 05:47:38;;;;;;;7.93;4.07;;;0.40;99.90;;;;;;5072086;28;20044;-72
2023/02/27 05:50:15;;;;;;;6.85;3.55;;;0.40;99.90;;;;;;5072425;28;20036;-72
2023/02/27 05:52:43;;;;;;;8.82;4.05;;;0.20;99.90;;;;;;5072144;28;20040;-72
2023/02/27 05:55:21;;;;;;;8.63;3.47;;;0.40;99.90;;;;;;5054364;28;20063;-72
2023/02/27 05:57:56;;;;;;;7.20;3.90;;;0.40;99.90;;;;;;5072274;28;20048;-72
2023/02/27 06:00:33;;;;;;;6.05;3.40;;;0.30;99.90;;;;;;5071269;28;20697;-72
2023/02/27 06:02:59;;;;;;;9.35;3.28;;;0.30;99.90;;;;;;5071575;28;20044;-72
2023/02/27 06:05:26;;;;;;;6.45;3.08;;;0.30;99.90;;;;;;5071911;28;20033;-72
2023/02/27 06:07:52;;;;;;;9.35;4.07;;;0.30;99.90;;;;;;5071388;28;20052;-72
2023/02/27 06:10:20;;;;;;;11.00;4.10;;;0.10;99.90;;;;;;5072120;28;20036;-72
2023/02/27 06:12:45;;;;;;;12.55;5.63;;;0.30;99.90;;;;;;5072006;28;20121;-72
2023/02/27 06:15:12;;;;;;;12.35;5.68;;;0.30;99.90;;;;;;5071923;28;20094;-71
2023/02/27 06:17:38;;;;;;;18.73;9.00;;;0.30;99.90;;;;;;5071735;28;20044;-71
2023/02/27 06:20:05;;;;;;;19.40;8.82;;;0.10;99.90;;;;;;5071990;28;20437;-72
2023/02/27 06:22:32;;;;;;;17.20;8.88;;;0.10;99.90;;;;;;5071462;28;20045;-71
2023/02/27 06:24:57;;;;;;;22.40;9.07;;;0.10;99.90;;;;;;5071856;28;20076;-72
2023/02/27 06:27:25;;;;;;;12.15;6.38;;;0.20;99.90;;;;;;5071656;28;20098;-71
2023/02/27 06:29:51;;;;;;;10.27;6.10;;;0.10;99.90;;;;;;5071659;28;20043;-71
2023/02/27 06:32:16;;;;;;;10.32;4.35;;;0.10;99.90;;;;;;5071624;28;20055;-71
2023/02/27 06:34:42;;;;;;;10.07;4.53;;;0.20;99.90;;;;;;5071326;28;20064;-70
2023/02/27 06:37:07;;;;;;;10.95;4.15;;;0.10;99.90;;;;;;5071387;28;20076;-71
2023/02/27 06:39:33;;;;;;;7.28;3.75;;;0.30;99.90;;;;;;5071755;28;20570;-71
2023/02/27 06:41:58;;;;;;;5.88;3.28;;;0.20;99.90;;;;;;5071624;28;20040;-70
2023/02/27 06:44:24;;;;;;;8.52;3.63;;;0.20;99.90;;;;;;5071297;28;20040;-71
2023/02/27 06:46:49;;;;;;;7.60;3.28;;;0.40;99.90;;;;;;5069830;28;20491;-70
2023/02/27 06:49:15;;;;;;;4.65;3.15;;;0.50;99.90;;;;;;5071529;28;20111;-72
2023/02/27 06:51:41;;;;;;;8.07;3.53;;;0.50;99.90;;;;;;5069666;28;20466;-71
2023/02/27 06:54:07;;;;;;;8.82;4.53;;;0.40;99.90;;;;;;5070120;28;20051;-73
2023/02/27 06:56:33;;;;;;;7.55;4.30;;;0.40;99.90;;;;;;5069923;28;20109;-73
2023/02/27 06:58:58;;;;;;;9.93;5.28;;;0.60;99.90;;;;;;5070258;28;20442;-73
2023/02/27 07:01:25;;;;;;;9.20;6.10;;;0.50;99.90;;;;;;5070710;28;20085;-74
2023/02/27 07:03:50;;;;;;;12.38;4.80;;;0.50;99.90;;;;;;5070373;28;20567;-74
2023/02/27 07:06:16;;;;;;;8.55;4.55;;;0.60;99.90;;;;;;5070013;28;20080;-73
2023/02/27 07:08:42;;;;;;;6.30;3.63;;;0.70;99.90;;;;;;5071286;28;20041;-73
2023/02/27 07:11:07;;;;;;;5.82;3.55;;;0.60;99.90;;;;;;5071476;28;20492;-73
2023/02/27 07:13:33;;;;;;;8.93;2.92;;;0.90;99.90;;;;;;5071045;28;20144;-73
2023/02/27 07:15:58;;;;;;;4.75;3.50;;;1.00;99.90;;;;;;5073060;28;20036;-72
2023/02/27 07:18:24;;;;;;;17.90;4.25;;;1.00;99.90;;;;;;5075172;28;20123;-72
2023/02/27 07:20:51;;;;;;;7.70;3.40;;;1.00;99.90;;;;;;5073959;28;20123;-71
2023/02/27 07:23:17;;;;;;;4.05;3.03;;;1.00;99.90;;;;;;5074861;28;20487;-72
2023/02/27 07:25:42;;;;;;;9.40;3.35;;;1.00;99.90;;;;;;5074999;28;20044;-72
2023/02/27 07:28:08;;;;;;;5.13;2.97;;;1.10;99.90;;;;;;5074774;28;20041;-71
2023/02/27 07:30:33;;;;;;;7.45;3.60;;;1.30;99.90;;;;;;5073722;28;20127;-72
2023/02/27 07:32:59;;;;;;;6.20;3.13;;;1.30;99.90;;;;;;5074735;28;20048;-73
2023/02/27 07:35:24;;;;;;;8.13;2.90;;;1.30;99.90;;;;;;5074848;28;20037;-73
2023/02/27 07:37:50;;;;;;;5.70;2.97;;;1.40;99.90;;;;;;5074632;28;20376;-73
2023/02/27 07:40:16;;;;;;;9.65;4.80;;;1.30;99.90;;;;;;5074929;28;20122;-73
2023/02/27 07:42:47;;;;;;;5.95;2.90;;;1.30;99.90;;;;;;5074035;28;20040;-73
2023/02/27 07:45:13;;;;;;;5.65;2.97;;;1.50;99.90;;;;;;5064972;28;20415;-73
2023/02/27 07:47:38;;;;;;;8.15;3.13;;;1.60;99.90;;;;;;5073139;28;20044;-73
2023/02/27 07:50:05;;;;;;;5.88;3.17;;;1.70;99.90;;;;;;5066217;28;20392;-73
2023/02/27 07:52:31;;;;;;;9.02;3.55;;;1.50;99.90;;;;;;5074760;28;20028;-73
2023/02/27 07:54:56;;;;;;;15.38;3.78;;;1.90;99.90;;;;;;5074660;28;20040;-73
2023/02/27 07:57:22;;;;;;;8.57;3.53;;;1.90;99.90;;;;;;5074455;28;20036;-73
2023/02/27 07:59:47;;;;;;;16.02;4.60;;;1.80;99.90;;;;;;5065226;28;20403;-73
2023/02/27 08:02:13;;;;;;;12.57;4.45;;;1.90;99.90;;;;;;5073228;28;20040;-73
2023/02/27 08:04:38;;;;;;;11.13;3.90;;;1.80;99.90;;;;;;5074145;28;20048;-72
2023/02/27 08:07:04;;;;;;;6.20;3.88;;;2.00;99.90;;;;;;5073166;28;20120;-72
2023/02/27 08:09:30;;;;;;;9.75;3.97;;;2.40;99.90;;;;;;5074479;28;20711;-73
2023/02/27 08:11:57;;;;;;;10.98;3.83;;;2.40;99.90;;;;;;5074548;28;20403;-73
2023/02/27 08:14:22;;;;;;;5.68;3.45;;;2.60;99.90;;;;;;5074242;28;20036;-72
2023/02/27 08:16:48;;;;;;;11.52;4.30;;;2.40;99.90;;;;;;5074158;28;20049;-72
2023/02/27 08:19:14;;;;;;;11.80;4.18;;;2.70;99.90;;;;;;5065622;28;20115;-72
2023/02/27 08:21:40;;;;;;;9.95;3.88;;;2.80;99.90;;;;;;5056275;28;20098;-72
2023/02/27 08:24:06;;;;;;;5.82;3.50;;;2.90;99.90;;;;;;5074041;28;20041;-73
2023/02/27 08:26:32;;;;;;;9.73;3.92;;;2.80;99.90;;;;;;5073812;28;20082;-73
2023/02/27 08:28:57;;;;;;;7.40;3.08;;;2.80;99.90;;;;;;5074166;28;20047;-73
2023/02/27 08:31:23;;;;;;;13.32;3.60;;;2.80;99.90;;;;;;5074086;28;20028;-73
2023/02/27 08:33:49;;;;;;;12.02;4.63;;;2.90;99.90;;;;;;5072342;28;20041;-73
2023/02/27 08:36:14;;;;;;;6.15;3.00;;;3.00;99.90;;;;;;5073870;28;20043;-73
2023/02/27 08:38:40;;;;;;;6.40;3.13;;;3.10;99.90;;;;;;5073825;28;20041;-73
2023/02/27 08:41:05;;;;;;;8.98;3.40;;;3.00;99.90;;;;;;5073905;28;20078;-73
2023/02/27 08:43:31;;;;;;;11.32;3.63;;;3.30;99.90;;;;;;5073452;28;20131;-73
2023/02/27 08:45:56;;;;;;;10.15;3.92;;;3.50;99.90;;;;;;5073826;28;20044;-73
2023/02/27 08:48:23;;;;;;;10.52;3.83;;;3.20;99.90;;;;;;5073408;28;20044;-73
2023/02/27 08:50:49;;;;;;;6.72;3.03;;;3.50;99.90;;;;;;5055745;28;20119;-73
2023/02/27 08:53:14;;;;;;;6.55;3.60;;;3.50;99.90;;;;;;5073411;28;20159;-73
2023/02/27 08:55:41;;;;;;;8.25;2.72;;;3.70;99.90;;;;;;5072660;28;20044;-74
2023/02/27 08:58:07;;;;;;;10.02;2.60;;;3.80;99.90;;;;;;5073400;28;20036;-74
2023/02/27 09:00:33;;;;;;;6.82;2.67;;;4.00;99.90;;;;;;5064040;28;20041;-73
2023/02/27 09:03:00;;;;;;;6.35;2.42;;;4.00;99.90;;;;;;5064557;28;20040;-74
2023/02/27 09:05:25;;;;;;;12.40;3.55;;;4.10;99.90;;;;;;5053084;28;20534;-73
2023/02/27 09:07:51;;;;;;;8.38;2.30;;;4.20;99.90;;;;;;5053321;28;20045;-73
2023/02/27 09:10:17;;;;;;;6.07;1.90;;;4.30;99.90;;;;;;5052005;28;20045;-73
2023/02/27 09:12:42;;;;;;;6.82;1.95;;;4.30;99.90;;;;;;5053149;28;20439;-73
2023/02/27 09:15:10;;;;;;;7.85;2.90;;;4.40;99.90;;;;;;5053084;28;20048;-73
2023/02/27 09:17:35;;;;;;;4.60;1.60;;;4.30;99.90;;;;;;5052969;28;20045;-73
2023/02/27 09:20:03;;;;;;;8.23;2.78;;;4.30;99.90;;;;;;5053323;28;20135;-73
2023/02/27 09:22:28;;;;;;;5.85;1.80;;;4.40;99.90;;;;;;5053080;28;20076;-73
2023/02/27 09:24:54;;;;;;;9.82;3.35;;;4.40;99.90;;;;;;5052833;28;20044;-73
2023/02/27 09:27:20;;;;;;;4.15;1.60;;;4.60;99.90;;;;;;5051803;28;20049;-73
2023/02/27 09:29:47;;;;;;;8.25;1.67;;;4.70;99.90;;;;;;5051651;28;20041;-73
2023/02/27 09:32:13;;;;;;;6.22;1.70;;;4.70;99.90;;;;;;5034948;28;20048;-73
2023/02/27 09:34:38;;;;;;;5.40;1.90;;;4.80;99.90;;;;;;5052762;28;20037;-73
2023/02/27 09:37:04;;;;;;;9.70;2.60;;;4.90;99.90;;;;;;5052722;28;20064;-73
2023/02/27 09:39:30;;;;;;;7.50;2.22;;;4.90;99.90;;;;;;5050937;28;20037;-73
2023/02/27 09:42:24;;;;;;;5.30;1.75;;;5.00;99.90;;;;;;5052595;28;20040;-73
2023/02/27 09:44:51;;;;;;;;;;;5.20;99.90;;;;;;5053257;28;20239;-73
2023/02/27 09:47:36;;;;;;;6.07;1.90;;;5.20;99.90;;;;;;5051987;28;19928;-73
2023/02/27 09:50:06;;;;;;;4.30;1.52;;;5.40;99.90;;;;;;5052695;28;20126;-73
2023/02/27 09:52:35;;;;;;;4.15;1.63;;;5.50;99.90;;;;;;5052220;28;20090;-73
2023/02/27 09:55:01;;;;;;;7.70;1.75;;;5.60;99.90;;;;;;5052205;28;20037;-73
2023/02/27 09:57:45;;;;;;;7.15;2.22;;;5.60;99.90;;;;;;5052281;28;20520;-73
2023/02/27 10:00:26;;;;;;;4.90;1.40;;;5.70;99.90;;;;;;5052517;28;20076;-73
2023/02/27 10:03:09;;;;;;;3.97;1.30;;;5.60;99.90;;;;;;5050793;28;20053;-73
2023/02/27 10:06:00;;;;;;;6.97;1.60;;;5.60;99.90;;;;;;5052558;28;20047;-73
2023/02/27 10:08:37;;;;;;;9.30;2.08;;;5.70;99.90;;;;;;5052003;28;20543;-74
2023/02/27 10:11:11;;;;;;;9.00;1.60;;;5.60;99.90;;;;;;5052304;28;20033;-74
2023/02/27 10:14:00;;;;;;;3.60;1.48;;;5.60;99.90;;;;;;5051831;28;20033;-74
2023/02/27 10:16:26;;;;;;;6.03;1.88;;;5.80;99.90;;;;;;5052062;28;20523;-73
2023/02/27 10:19:02;;;;;;;8.18;1.30;;;5.90;99.90;;;;;;5050785;28;20049;-73
2023/02/27 10:21:35;;;;;;;6.07;1.40;;;5.90;99.90;;;;;;5052195;28;20046;-73
2023/02/27 10:24:22;;;;;;;4.55;1.08;;;6.00;99.90;;;;;;5051679;28;20037;-74
2023/02/27 10:26:51;;;;;;;2.53;1.20;;;6.20;99.90;;;;;;5052029;28;20049;-74
2023/02/27 10:29:40;;;;;;;3.25;1.20;;;6.30;99.90;;;;;;5051824;28;20485;-73
2023/02/27 10:32:10;;;;;;;8.30;2.25;;;6.30;99.90;;;;;;5050592;28;20037;-73
2023/02/27 10:34:39;;;;;;;7.43;2.35;;;6.40;99.90;;;;;;5033781;28;20116;-74
2023/02/27 10:37:05;;;;;;;1.85;0.90;;;6.40;99.90;;;;;;5050262;28;20044;-74
2023/02/27 10:39:45;;;;;;;2.53;0.70;;;6.40;99.90;;;;;;5051760;28;20040;-74
2023/02/27 10:42:12;;;;;;;2.00;1.10;;;6.40;99.90;;;;;;5051770;28;20072;-74
2023/02/27 10:44:37;;;;;;;3.35;1.67;;;6.50;99.90;;;;;;5051504;28;20037;-74
2023/02/27 10:47:03;;;;;;;4.78;1.63;;;6.50;99.90;;;;;;5051153;28;20183;-74
2023/02/27 10:49:32;;;;;;;3.70;1.23;;;6.50;99.90;;;;;;5051814;28;20041;-74
2023/02/27 10:52:12;;;;;;;2.20;0.90;;;6.60;99.90;;;;;;5051755;28;20037;-73
2023/02/27 10:54:39;;;;;;;5.57;1.30;;;6.50;99.90;;;;;;5051466;28;20075;-74
2023/02/27 10:57:32;;;;;;;3.05;1.13;;;6.60;99.90;;;;;;5051538;28;20041;-74
2023/02/27 11:00:04;;;;;;;2.78;0.50;;;6.60;99.90;;;;;;5051779;28;20044;-74
2023/02/27 11:02:36;;;;;;;2.92;0.80;;;6.60;99.20;;;;;;5051558;28;20049;-74
2023/02/27 11:05:02;;;;;;;1.08;0.45;;;6.60;99.20;;;;;;5051254;28;20053;-74
2023/02/27 11:07:32;;;;;;;2.22;1.00;;;6.60;99.50;;;;;;5051320;28;20098;-74
2023/02/27 11:10:20;;;;;;;3.50;1.15;;;6.60;99.50;;;;;;5051379;28;20041;-74
2023/02/27 11:13:06;;;;;;;2.78;0.80;;;6.50;98.20;;;;;;5050272;28;20591;-74
2023/02/27 11:15:34;;;;;;;3.35;1.00;;;6.60;98.50;;;;;;5051314;28;20044;-77
2023/02/27 11:18:27;;;;;;;2.85;0.82;;;6.80;98.20;;;;;;5050792;28;20049;-77
2023/02/27 11:21:07;;;;;;;2.40;1.30;;;6.80;96.60;;;;;;5070627;28;20048;-77
2023/02/27 11:23:34;;;;;;;2.45;1.02;;;6.90;96.20;;;;;;5069957;28;20080;-76
2023/02/27 11:26:19;;;;;;;1.83;0.70;;;7.00;96.00;;;;;;5069976;28;20044;-76
2023/02/27 11:28:45;;;;;;;1.42;0.55;;;6.90;95.50;;;;;;5070852;28;20094;-77
2023/02/27 11:31:20;;;;;;;2.10;0.63;;;7.00;95.10;;;;;;5071366;28;20040;-76
2023/02/27 11:33:54;;;;;;;2.75;0.80;;;7.20;94.90;;;;;;5069642;28;20676;-75
2023/02/27 11:36:22;;;;;;;2.83;0.70;;;7.20;94.20;;;;;;5070004;28;20503;-75
2023/02/27 11:38:55;;;;;;;3.00;0.60;;;7.30;94.90;;;;;;5069853;28;20086;-75
2023/02/27 11:41:31;;;;;;;1.52;0.70;;;7.30;95.20;;;;;;5071137;28;20087;-75
2023/02/27 11:43:58;;;;;;;3.75;1.02;;;7.40;95.40;;;;;;5069420;28;20049;-75
2023/02/27 11:46:25;;;;;;;5.03;0.98;;;7.50;96.10;;;;;;5070723;28;20041;-75
2023/02/27 11:48:57;;;;;;;2.05;0.77;;;7.40;96.50;;;;;;5070700;28;20048;-75
2023/02/27 11:51:23;;;;;;;1.58;0.68;;;7.40;96.70;;;;;;5071200;28;20158;-75
2023/02/27 11:54:04;;;;;;;2.60;0.90;;;7.30;97.10;;;;;;5069471;28;20132;-75
2023/02/27 11:56:38;;;;;;;1.17;0.38;;;7.20;97.00;;;;;;5069837;28;20048;-75
2023/02/27 11:59:30;;;;;;;0.93;0.50;;;7.10;97.30;;;;;;5069668;28;20423;-75
2023/02/27 12:02:19;;;;;;;2.17;0.88;;;7.10;96.90;;;;;;5071876;28;20049;-74
2023/02/27 12:05:17;;;;;;;3.13;0.60;;;7.10;97.20;;;;;;5072959;28;20060;-74
2023/02/27 12:07:56;;;;;;;2.22;0.45;;;7.10;97.20;;;;;;5072714;28;20415;-75
2023/02/27 12:10:25;;;;;;;2.33;0.77;;;6.90;97.10;;;;;;5073311;28;20408;-75
2023/02/27 12:12:57;;;;;;;2.42;0.68;;;6.90;97.50;;;;;;5089900;28;20578;-75
2023/02/27 12:15:26;;;;;;;2.05;0.65;;;6.80;97.20;;;;;;5073294;28;20036;-75
2023/02/27 12:18:01;;;;;;;3.72;0.52;;;6.90;97.60;;;;;;5073791;28;20742;-74
2023/02/27 12:20:44;;;;;;;1.98;0.52;;;6.80;97.90;;;;;;5073809;28;20391;-75
2023/02/27 12:23:20;;;;;;;1.05;0.60;;;6.80;98.20;;;;;;5073943;28;20041;-75
2023/02/27 12:25:54;;;;;;;3.17;0.70;;;6.80;98.00;;;;;;5073021;28;20033;-75
2023/02/27 12:29:01;;;;;;;2.55;1.00;;;6.80;98.10;;;;;;5074166;28;20123;-75
2023/02/27 12:31:36;;;;;;;1.77;0.60;;;6.90;97.40;;;;;;5074306;28;20133;-75
2023/02/27 12:34:20;;;;;;;5.15;1.85;;;6.90;97.90;;;;;;5072549;28;20127;-76
2023/02/27 12:36:47;;;;;;;8.38;2.97;;;7.00;97.20;;;;;;5074012;28;20162;-77
2023/02/27 12:39:23;;;;;;;7.57;1.58;;;6.90;97.60;;;;;;5073013;28;20044;-75
2023/02/27 12:42:11;;;;;;;1.80;0.47;;;6.80;97.40;;;;;;5072650;28;20045;-74
2023/02/27 12:44:48;;;;;;;1.55;0.68;;;6.80;97.20;;;;;;5072415;28;20036;-76
2023/02/27 12:47:27;;;;;;;3.22;0.63;;;6.90;97.90;;;;;;5073545;28;20032;-77
2023/02/27 12:50:10;;;;;;;2.55;0.57;;;6.90;97.90;;;;;;5073804;28;20079;-74
2023/02/27 12:53:11;;;;;;;3.17;0.90;;;7.00;97.80;;;;;;5073938;28;20515;-77
2023/02/27 12:55:47;;;;;;;4.32;0.70;;;7.00;97.50;;;;;;5073410;28;20450;-77
2023/02/27 12:58:33;;;;;;;3.45;0.60;;;7.00;97.40;;;;;;5072245;28;20036;-73
2023/02/27 13:01:02;;;;;;;1.75;0.77;;;7.00;97.40;;;;;;5073901;28;20040;-76
2023/02/27 13:03:53;;;;;;;3.88;0.70;;;7.00;97.80;;;;;;5071945;28;20037;-77
2023/02/27 13:06:33;;;;;;;2.80;0.70;;;7.00;97.80;;;;;;5072581;28;20075;-76
2023/02/27 13:09:10;;;;;;;3.40;0.52;;;6.90;97.80;;;;;;5073552;28;20045;-77
2023/02/27 13:12:23;;;;;;;1.80;0.50;;;6.90;98.20;;;;;;5072135;28;20512;-78
2023/02/27 13:15:01;;;;;;;1.70;0.90;;;6.80;97.80;;;;;;5013717;28;20076;-76
2023/02/27 13:18:05;;;;;;;1.63;0.55;;;6.80;98.10;;;;;;5069387;28;20079;-76
2023/02/27 13:20:43;;;;;;;2.88;0.43;;;6.90;98.20;;;;;;5071773;28;20171;-76
2023/02/27 13:23:21;;;;;;;3.20;0.98;;;7.00;98.50;;;;;;5071625;28;20048;-76
2023/02/27 13:25:50;;;;;;;3.40;0.50;;;7.10;98.40;;;;;;5071898;28;20041;-76